createdAt,value
2023-04-22T00:00:05.555Z,11.52
2023-04-22T00:01:05.584Z,11.51
2023-04-22T00:02:05.635Z,11.47
2023-04-22T00:03:05.589Z,11.46
2023-04-22T00:04:05.764Z,11.44
2023-04-22T00:05:05.706Z,11.46
2023-04-22T00:06:05.453Z,11.44
2023-04-22T00:07:05.488Z,11.42
2023-04-22T00:08:05.444Z,11.39
2023-04-22T00:09:05.452Z,11.40
2023-04-22T00:10:05.417Z,11.39
2023-04-22T00:11:05.418Z,11.35
2023-04-22T00:12:05.394Z,11.29
2023-04-22T00:13:05.382Z,11.28
2023-04-22T00:14:05.362Z,11.25
2023-04-22T00:15:05.355Z,11.22
2023-04-22T00:16:05.370Z,11.21
2023-04-22T00:17:05.368Z,11.21
2023-04-22T00:18:05.311Z,11.22
2023-04-22T00:19:05.307Z,11.21
2023-04-22T00:20:05.286Z,11.19
2023-04-22T00:21:05.299Z,11.19
2023-04-22T00:22:05.246Z,11.19
2023-04-22T00:23:05.282Z,11.22
2023-04-22T00:24:05.223Z,11.24
2023-04-22T00:25:05.236Z,11.22
2023-04-22T00:26:05.180Z,11.22
2023-04-22T00:27:05.201Z,11.24
2023-04-22T00:28:05.172Z,11.25
2023-04-22T00:29:05.181Z,11.25
2023-04-22T00:30:05.180Z,11.27
2023-04-22T00:31:05.212Z,11.27
2023-04-22T00:32:05.108Z,11.28
2023-04-22T00:33:05.223Z,11.29
2023-04-22T00:34:05.106Z,11.29
2023-04-22T00:35:05.097Z,11.29
2023-04-22T00:36:05.061Z,11.28
2023-04-22T00:37:05.073Z,11.25
2023-04-22T00:38:05.041Z,11.25
2023-04-22T00:39:05.054Z,11.25
2023-04-22T00:40:05.001Z,11.24
2023-04-22T00:41:05.016Z,11.21
2023-04-22T00:42:04.971Z,11.19
2023-04-22T00:43:05.012Z,11.15
2023-04-22T00:44:04.952Z,11.11
2023-04-22T00:45:04.955Z,11.06
2023-04-22T00:46:04.931Z,11.03
2023-04-22T00:47:05.009Z,10.97
2023-04-22T00:48:04.995Z,10.96
2023-04-22T00:49:04.903Z,10.96
2023-04-22T00:50:04.877Z,10.96
2023-04-22T00:51:04.891Z,10.96
2023-04-22T00:52:04.853Z,10.97
2023-04-22T00:53:04.888Z,10.97
2023-04-22T00:54:04.815Z,10.97
2023-04-22T00:55:04.841Z,10.92
2023-04-22T00:56:04.809Z,10.91
2023-04-22T00:57:04.790Z,10.88
2023-04-22T00:58:04.778Z,10.88
2023-04-22T00:59:04.782Z,10.85
2023-04-22T01:00:04.749Z,10.86
2023-04-22T01:01:04.876Z,10.88
2023-04-22T01:02:04.774Z,10.91
2023-04-22T01:03:04.859Z,10.96
2023-04-22T01:04:04.841Z,10.96
2023-04-22T01:05:04.699Z,10.94
2023-04-22T01:06:04.689Z,10.91
2023-04-22T01:07:04.669Z,10.89
2023-04-22T01:08:04.699Z,10.89
2023-04-22T01:09:04.650Z,10.88
2023-04-22T01:10:04.614Z,10.88
2023-04-22T01:11:04.650Z,10.91
2023-04-22T01:12:04.582Z,10.89
2023-04-22T01:13:04.585Z,10.86
2023-04-22T01:14:04.563Z,10.81
2023-04-22T01:15:05.032Z,10.78
2023-04-22T01:16:04.549Z,10.74
2023-04-22T01:17:04.667Z,10.73
2023-04-22T01:18:04.562Z,10.73
2023-04-22T01:19:04.529Z,10.73
2023-04-22T01:20:04.629Z,10.74
2023-04-22T01:21:04.487Z,10.74
2023-04-22T01:22:04.450Z,10.74
2023-04-22T01:23:04.451Z,10.68
2023-04-22T01:24:04.436Z,10.64
2023-04-22T01:25:04.436Z,10.55
2023-04-22T01:26:04.411Z,10.42
2023-04-22T01:27:04.432Z,10.36
2023-04-22T01:28:04.436Z,10.33
2023-04-22T01:29:04.376Z,10.26
2023-04-22T01:30:04.363Z,10.23
2023-04-22T01:31:04.355Z,10.23
2023-04-22T01:32:04.353Z,10.25
2023-04-22T01:33:04.415Z,10.29
2023-04-22T01:34:04.284Z,10.34
2023-04-22T01:35:04.341Z,10.36
2023-04-22T01:36:04.264Z,10.38
2023-04-22T01:37:04.290Z,10.41
2023-04-22T01:38:04.237Z,10.44
2023-04-22T01:39:04.276Z,10.45
2023-04-22T01:40:04.224Z,10.51
2023-04-22T01:41:04.251Z,10.48
2023-04-22T01:42:04.178Z,10.51
2023-04-22T01:43:04.249Z,10.45
2023-04-22T01:44:04.146Z,10.44
2023-04-22T01:45:04.193Z,10.45
2023-04-22T01:46:04.266Z,10.44
2023-04-22T01:47:04.150Z,10.44
2023-04-22T01:48:04.145Z,10.42
2023-04-22T01:49:04.158Z,10.38
2023-04-22T01:50:04.093Z,10.36
2023-04-22T01:51:04.124Z,10.33
2023-04-22T01:52:04.064Z,10.30
2023-04-22T01:53:04.084Z,10.25
2023-04-22T01:54:04.017Z,10.17
2023-04-22T01:55:04.032Z,10.09
2023-04-22T01:56:04.010Z,10.02
2023-04-22T01:57:04.018Z,10.01
2023-04-22T01:58:03.974Z,10.01
2023-04-22T01:59:03.987Z,10.01
2023-04-22T02:00:03.972Z,9.99
2023-04-22T02:01:04.033Z,9.97
2023-04-22T02:02:04.003Z,9.94
2023-04-22T02:03:04.014Z,9.93
2023-04-22T02:04:03.896Z,9.93
2023-04-22T02:05:03.943Z,9.93
2023-04-22T02:06:03.865Z,9.93
2023-04-22T02:07:03.874Z,9.93
2023-04-22T02:08:03.874Z,9.94
2023-04-22T02:09:03.840Z,9.93
2023-04-22T02:10:03.820Z,9.94
2023-04-22T02:11:03.818Z,9.93
2023-04-22T02:12:03.827Z,9.93
2023-04-22T02:13:03.800Z,9.93
2023-04-22T02:14:03.758Z,9.94
2023-04-22T02:15:03.824Z,9.96
2023-04-22T02:16:03.774Z,9.97
2023-04-22T02:17:03.764Z,10.02
2023-04-22T02:18:03.736Z,10.05
2023-04-22T02:19:03.712Z,10.09
2023-04-22T02:20:03.716Z,10.11
2023-04-22T02:21:03.726Z,10.11
2023-04-22T02:22:03.677Z,10.11
2023-04-22T02:23:03.683Z,10.15
2023-04-22T02:24:03.634Z,10.17
2023-04-22T02:25:03.645Z,10.20
2023-04-22T02:26:03.601Z,10.22
2023-04-22T02:27:03.626Z,10.22
2023-04-22T02:28:03.602Z,10.25
2023-04-22T02:29:03.574Z,10.26
2023-04-22T02:30:03.573Z,10.27
2023-04-22T02:31:03.598Z,10.27
2023-04-22T02:32:03.579Z,10.29
2023-04-22T02:33:03.569Z,10.29
2023-04-22T02:34:03.507Z,10.29
2023-04-22T02:35:03.547Z,10.29
2023-04-22T02:36:03.459Z,10.26
2023-04-22T02:37:03.546Z,10.26
2023-04-22T02:38:03.474Z,10.26
2023-04-22T02:39:03.464Z,10.27
2023-04-22T02:40:03.456Z,10.23
2023-04-22T02:41:03.451Z,10.20
2023-04-22T02:42:03.376Z,10.18
2023-04-22T02:43:03.411Z,10.15
2023-04-22T02:44:03.395Z,10.09
2023-04-22T02:45:03.402Z,10.04
2023-04-22T02:46:03.398Z,9.99
2023-04-22T02:47:03.393Z,10.01
2023-04-22T02:48:03.476Z,9.97
2023-04-22T02:49:03.336Z,10.01
2023-04-22T02:50:03.319Z,10.01
2023-04-22T02:51:03.305Z,10.02
2023-04-22T02:52:03.271Z,10.04
2023-04-22T02:53:03.307Z,10.05
2023-04-22T02:54:03.245Z,10.05
2023-04-22T02:55:03.261Z,10.02
2023-04-22T02:56:03.208Z,9.99
2023-04-22T02:57:03.212Z,9.94
2023-04-22T02:58:03.202Z,9.91
2023-04-22T02:59:03.195Z,9.93
2023-04-22T03:00:03.151Z,9.91
2023-04-22T03:01:03.226Z,9.93
2023-04-22T03:02:05.951Z,9.93
2023-04-22T03:03:03.304Z,9.94
2023-04-22T03:04:03.268Z,9.93
2023-04-22T03:05:03.152Z,9.90
2023-04-22T03:06:03.067Z,9.86
2023-04-22T03:07:03.105Z,9.79
2023-04-22T03:08:03.050Z,9.76
2023-04-22T03:09:03.091Z,9.76
2023-04-22T03:10:03.050Z,9.75
2023-04-22T03:11:03.033Z,9.72
2023-04-22T03:12:03.029Z,9.71
2023-04-22T03:13:03.018Z,9.68
2023-04-22T03:14:02.968Z,9.61
2023-04-22T03:15:02.996Z,9.57
2023-04-22T03:16:02.968Z,9.56
2023-04-22T03:17:03.103Z,9.56
2023-04-22T03:18:02.990Z,9.53
2023-04-22T03:19:02.936Z,9.53
2023-04-22T03:20:02.937Z,9.48
2023-04-22T03:21:02.913Z,9.51
2023-04-22T03:22:02.898Z,9.53
2023-04-22T03:23:02.879Z,9.50
2023-04-22T03:24:02.838Z,9.46
2023-04-22T03:25:02.864Z,9.47
2023-04-22T03:26:02.849Z,9.51
2023-04-22T03:27:02.838Z,9.51
2023-04-22T03:28:02.786Z,9.53
2023-04-22T03:29:02.818Z,9.56
2023-04-22T03:30:02.774Z,9.60
2023-04-22T03:31:02.790Z,9.61
2023-04-22T03:32:02.802Z,9.60
2023-04-22T03:33:02.758Z,9.61
2023-04-22T03:34:02.719Z,9.60
2023-04-22T03:35:02.728Z,9.58
2023-04-22T03:36:02.696Z,9.58
2023-04-22T03:37:02.690Z,9.61
2023-04-22T03:38:02.665Z,9.58
2023-04-22T03:39:02.670Z,9.51
2023-04-22T03:40:02.658Z,9.43
2023-04-22T03:41:02.649Z,9.35
2023-04-22T03:42:02.637Z,9.23
2023-04-22T03:43:02.614Z,9.11
2023-04-22T03:44:02.572Z,9.01
2023-04-22T03:45:02.623Z,8.94
2023-04-22T03:46:02.592Z,8.86
2023-04-22T03:47:02.565Z,8.81
2023-04-22T03:48:02.545Z,8.81
2023-04-22T03:49:02.581Z,8.79
2023-04-22T03:50:02.542Z,8.80
2023-04-22T03:51:02.525Z,8.81
2023-04-22T03:52:02.497Z,8.86
2023-04-22T03:53:02.502Z,8.94
2023-04-22T03:54:02.462Z,8.96
2023-04-22T03:55:02.471Z,9.04
2023-04-22T03:56:02.427Z,9.10
2023-04-22T03:57:02.436Z,9.15
2023-04-22T03:58:02.431Z,9.18
2023-04-22T03:59:02.452Z,9.21
2023-04-22T04:00:02.374Z,9.21
2023-04-22T04:01:02.417Z,9.21
2023-04-22T04:02:02.445Z,9.18
2023-04-22T04:03:02.532Z,9.17
2023-04-22T04:04:02.616Z,9.20
2023-04-22T04:05:02.664Z,9.20
2023-04-22T04:06:02.399Z,9.21
2023-04-22T04:07:02.304Z,9.20
2023-04-22T04:08:02.264Z,9.14
2023-04-22T04:09:02.318Z,9.02
2023-04-22T04:10:02.236Z,8.98
2023-04-22T04:11:02.285Z,8.95
2023-04-22T04:12:02.219Z,8.91
2023-04-22T04:13:02.223Z,8.86
2023-04-22T04:14:02.199Z,8.86
2023-04-22T04:15:02.198Z,8.86
2023-04-22T04:16:02.241Z,8.89
2023-04-22T04:17:02.139Z,8.94
2023-04-22T04:18:02.221Z,8.96
2023-04-22T04:19:02.121Z,8.98
2023-04-22T04:20:02.138Z,9.01
2023-04-22T04:21:02.123Z,9.04
2023-04-22T04:22:02.276Z,9.08
2023-04-22T04:23:02.066Z,9.10
2023-04-22T04:24:02.092Z,9.11
2023-04-22T04:25:02.040Z,9.13
2023-04-22T04:26:02.074Z,9.13
2023-04-22T04:27:02.017Z,9.13
2023-04-22T04:28:02.040Z,9.14
2023-04-22T04:29:02.086Z,9.14
2023-04-22T04:30:01.998Z,9.13
2023-04-22T04:31:02.026Z,9.13
2023-04-22T04:32:02.012Z,9.13
2023-04-22T04:33:02.000Z,9.10
2023-04-22T04:34:01.969Z,9.10
2023-04-22T04:35:01.928Z,9.10
2023-04-22T04:36:01.913Z,9.04
2023-04-22T04:37:01.910Z,9.01
2023-04-22T04:38:01.903Z,8.99
2023-04-22T04:39:01.886Z,8.99
2023-04-22T04:40:01.879Z,9.01
2023-04-22T04:41:01.825Z,8.98
2023-04-22T04:42:01.845Z,8.96
2023-04-22T04:43:01.817Z,8.96
2023-04-22T04:44:01.850Z,8.92
2023-04-22T04:45:01.790Z,8.87
2023-04-22T04:46:01.828Z,8.84
2023-04-22T04:47:01.804Z,8.84
2023-04-22T04:48:01.837Z,8.83
2023-04-22T04:49:01.777Z,8.77
2023-04-22T04:50:01.759Z,8.74
2023-04-22T04:51:01.692Z,8.74
2023-04-22T04:52:02.014Z,8.76
2023-04-22T04:53:01.697Z,8.77
2023-04-22T04:54:01.745Z,8.79
2023-04-22T04:55:01.699Z,8.83
2023-04-22T04:56:01.683Z,8.84
2023-04-22T04:57:01.621Z,8.80
2023-04-22T04:58:01.634Z,8.77
2023-04-22T04:59:01.605Z,8.73
2023-04-22T05:00:01.640Z,8.68
2023-04-22T05:01:01.576Z,8.66
2023-04-22T05:02:01.619Z,8.65
2023-04-22T05:03:01.720Z,8.63
2023-04-22T05:04:01.765Z,8.62
2023-04-22T05:05:01.641Z,8.52
2023-04-22T05:06:01.543Z,8.30
2023-04-22T05:07:01.495Z,8.16
2023-04-22T05:08:01.547Z,7.98
2023-04-22T05:09:01.489Z,7.85
2023-04-22T05:10:01.524Z,7.74
2023-04-22T05:11:01.445Z,7.71
2023-04-22T05:12:01.470Z,7.74
2023-04-22T05:13:03.996Z,7.80
2023-04-22T05:14:01.451Z,7.82
2023-04-22T05:15:01.428Z,7.75
2023-04-22T05:16:01.473Z,7.71
2023-04-22T05:17:01.428Z,7.67
2023-04-22T05:18:01.441Z,7.60
2023-04-22T05:19:01.367Z,7.61
2023-04-22T05:20:01.356Z,7.64
2023-04-22T05:21:01.382Z,7.63
2023-04-22T05:22:01.331Z,7.64
2023-04-22T05:23:01.304Z,7.69
2023-04-22T05:24:01.316Z,7.71
2023-04-22T05:25:01.310Z,7.74
2023-04-22T05:26:01.273Z,7.74
2023-04-22T05:27:01.238Z,7.69
2023-04-22T05:28:01.328Z,7.75
2023-04-22T05:29:01.222Z,7.79
2023-04-22T05:30:01.265Z,7.82
2023-04-22T05:31:01.179Z,7.83
2023-04-22T05:32:01.323Z,7.87
2023-04-22T05:33:01.277Z,7.89
2023-04-22T05:34:01.217Z,7.97
2023-04-22T05:35:01.150Z,8.04
2023-04-22T05:36:01.148Z,8.10
2023-04-22T05:37:01.111Z,8.15
2023-04-22T05:38:01.139Z,8.20
2023-04-22T05:39:01.106Z,8.25
2023-04-22T05:40:01.112Z,8.30
2023-04-22T05:41:01.063Z,8.37
2023-04-22T05:42:01.057Z,8.41
2023-04-22T05:43:01.028Z,8.45
2023-04-22T05:44:01.100Z,8.53
2023-04-22T05:45:01.020Z,8.58
2023-04-22T05:46:01.079Z,8.61
2023-04-22T05:47:00.983Z,8.66
2023-04-22T05:48:01.049Z,8.74
2023-04-22T05:49:00.996Z,8.80
2023-04-22T05:50:00.979Z,8.83
2023-04-22T05:51:00.951Z,8.87
2023-04-22T05:52:00.951Z,8.94
2023-04-22T05:53:00.961Z,9.01
2023-04-22T05:54:00.909Z,9.10
2023-04-22T05:55:00.879Z,9.13
2023-04-22T05:56:00.897Z,9.15
2023-04-22T05:57:00.857Z,9.17
2023-04-22T05:58:00.890Z,9.20
2023-04-22T05:59:00.812Z,9.23
2023-04-22T06:00:00.851Z,9.26
2023-04-22T06:01:00.814Z,9.32
2023-04-22T06:02:00.911Z,9.36
2023-04-22T06:03:00.976Z,9.39
2023-04-22T06:04:01.036Z,9.46
2023-04-22T06:05:01.061Z,9.50
2023-04-22T06:06:00.968Z,9.51
2023-04-22T06:07:00.715Z,9.56
2023-04-22T06:08:00.796Z,9.61
2023-04-22T06:09:00.724Z,9.65
2023-04-22T06:10:05.019Z,9.69
2023-04-22T06:11:00.665Z,9.75
2023-04-22T06:12:00.687Z,9.81
2023-04-22T06:13:00.641Z,9.84
2023-04-22T06:14:00.659Z,9.91
2023-04-22T06:15:00.659Z,9.97
2023-04-22T06:16:00.652Z,10.02
2023-04-22T06:17:00.607Z,10.05
2023-04-22T06:18:00.661Z,10.11
2023-04-22T06:19:00.575Z,10.15
2023-04-22T06:20:00.603Z,10.18
2023-04-22T06:21:00.559Z,10.23
2023-04-22T06:22:00.553Z,10.26
2023-04-22T06:23:00.515Z,10.30
2023-04-22T06:24:00.517Z,10.32
2023-04-22T06:25:00.526Z,10.34
2023-04-22T06:26:00.500Z,10.38
2023-04-22T06:27:00.457Z,10.40
2023-04-22T06:28:00.473Z,10.44
2023-04-22T06:29:00.443Z,10.45
2023-04-22T06:30:00.437Z,10.47
2023-04-22T06:31:00.433Z,10.48
2023-04-22T06:32:00.427Z,10.52
2023-04-22T06:33:00.411Z,10.56
2023-04-22T06:34:00.420Z,10.60
2023-04-22T06:35:00.357Z,10.60
2023-04-22T06:36:00.373Z,10.61
2023-04-22T06:37:00.325Z,10.63
2023-04-22T06:38:00.338Z,10.64
2023-04-22T06:39:00.321Z,10.68
2023-04-22T06:40:00.321Z,10.71
2023-04-22T06:41:00.279Z,10.74
2023-04-22T06:42:00.278Z,10.76
2023-04-22T06:43:00.242Z,10.78
2023-04-22T06:44:00.284Z,10.81
2023-04-22T06:45:00.214Z,10.81
2023-04-22T06:46:00.222Z,10.82
2023-04-22T06:47:00.225Z,10.84
2023-04-22T06:48:00.250Z,10.84
2023-04-22T06:49:00.168Z,10.82
2023-04-22T06:50:00.215Z,10.85
2023-04-22T06:51:00.153Z,10.88
2023-04-22T06:52:00.192Z,10.91
2023-04-22T06:53:00.126Z,10.96
2023-04-22T06:54:00.130Z,11.02
2023-04-22T06:55:00.146Z,11.10
2023-04-22T06:56:00.143Z,11.17
2023-04-22T06:57:00.065Z,11.19
2023-04-22T06:58:00.119Z,11.27
2023-04-22T06:59:00.039Z,11.32
2023-04-22T07:00:00.070Z,11.37
2023-04-22T07:00:59.998Z,11.43
2023-04-22T07:02:00.029Z,11.49
2023-04-22T07:03:00.043Z,11.61
2023-04-22T07:04:00.031Z,11.69
2023-04-22T07:04:59.953Z,11.73
2023-04-22T07:05:59.996Z,11.75
2023-04-22T07:06:59.946Z,11.75
2023-04-22T07:07:59.971Z,11.69
2023-04-22T07:08:59.971Z,11.60
2023-04-22T07:09:59.910Z,11.58
2023-04-22T07:10:59.918Z,11.61
2023-04-22T07:11:59.881Z,11.62
2023-04-22T07:12:59.843Z,11.67
2023-04-22T07:13:59.880Z,11.73
2023-04-22T07:14:59.839Z,11.80
2023-04-22T07:15:59.880Z,11.88
2023-04-22T07:16:59.785Z,11.95
2023-04-22T07:17:59.858Z,12.01
2023-04-22T07:18:59.816Z,12.09
2023-04-22T07:19:59.820Z,12.17
2023-04-22T07:20:59.764Z,12.29
2023-04-22T07:21:59.755Z,12.42
2023-04-22T07:22:59.728Z,12.53
2023-04-22T07:23:59.733Z,12.64
2023-04-22T07:24:59.705Z,12.72
2023-04-22T07:25:59.693Z,12.78
2023-04-22T07:26:59.657Z,12.79
2023-04-22T07:27:59.833Z,12.87
2023-04-22T07:28:59.650Z,12.92
2023-04-22T07:29:59.662Z,12.93
2023-04-22T07:30:59.672Z,13.05
2023-04-22T07:31:59.666Z,13.14
2023-04-22T07:32:59.700Z,13.25
2023-04-22T07:33:59.603Z,13.39
2023-04-22T07:34:59.602Z,13.51
2023-04-22T07:35:59.589Z,13.66
2023-04-22T07:36:59.574Z,13.73
2023-04-22T07:37:59.536Z,13.82
2023-04-22T07:38:59.535Z,13.96
2023-04-22T07:39:59.492Z,14.12
2023-04-22T07:40:59.519Z,14.25
2023-04-22T07:41:59.550Z,14.29
2023-04-22T07:42:59.572Z,14.36
2023-04-22T07:43:59.481Z,14.43
2023-04-22T07:44:59.471Z,14.42
2023-04-22T07:45:59.498Z,14.45
2023-04-22T07:46:59.473Z,14.46
2023-04-22T07:47:59.457Z,14.60
2023-04-22T07:48:59.408Z,14.78
2023-04-22T07:49:59.404Z,14.92
2023-04-22T07:50:59.388Z,15.03
2023-04-22T07:51:59.349Z,15.07
2023-04-22T07:52:59.424Z,15.14
2023-04-22T07:53:59.328Z,15.25
2023-04-22T07:54:59.360Z,15.32
2023-04-22T07:56:01.011Z,15.49
2023-04-22T07:56:59.290Z,15.62
2023-04-22T07:57:59.253Z,15.72
2023-04-22T07:58:59.282Z,15.89
2023-04-22T07:59:59.248Z,16.09
2023-04-22T08:00:59.288Z,16.31
2023-04-22T08:01:59.212Z,16.49
2023-04-22T08:02:59.291Z,16.63
2023-04-22T08:03:59.456Z,16.79
2023-04-22T08:04:59.200Z,16.91
2023-04-22T08:05:59.154Z,16.96
2023-04-22T08:06:59.721Z,17.01
2023-04-22T08:07:59.115Z,16.93
2023-04-22T08:08:59.184Z,16.83
2023-04-22T08:09:59.101Z,16.83
2023-04-22T08:10:59.096Z,16.71
2023-04-22T08:11:59.083Z,16.61
2023-04-22T08:12:59.081Z,16.56
2023-04-22T08:13:59.055Z,16.67
2023-04-22T08:14:59.068Z,16.79
2023-04-22T08:15:59.085Z,16.91
2023-04-22T08:16:59.030Z,16.97
2023-04-22T08:17:59.060Z,17.06
2023-04-22T08:18:59.034Z,17.18
2023-04-22T08:19:58.979Z,17.16
2023-04-22T08:20:58.986Z,16.98
2023-04-22T08:21:58.945Z,16.83
2023-04-22T08:22:58.954Z,16.82
2023-04-22T08:23:58.925Z,16.83
2023-04-22T08:24:58.954Z,16.81
2023-04-22T08:25:58.888Z,16.70
2023-04-22T08:26:58.913Z,16.60
2023-04-22T08:27:58.865Z,16.75
2023-04-22T08:28:58.870Z,16.88
2023-04-22T08:29:58.852Z,16.91
2023-04-22T08:30:58.862Z,17.00
2023-04-22T08:31:58.846Z,17.16
2023-04-22T08:32:58.888Z,17.25
2023-04-22T08:33:58.826Z,17.22
2023-04-22T08:35:04.342Z,17.28
2023-04-22T08:35:58.812Z,17.38
2023-04-22T08:36:58.750Z,17.40
2023-04-22T08:37:58.777Z,17.41
2023-04-22T08:38:58.733Z,17.43
2023-04-22T08:39:58.758Z,17.40
2023-04-22T08:40:58.703Z,17.34
2023-04-22T08:41:58.711Z,17.34
2023-04-22T08:42:58.689Z,17.41
2023-04-22T08:43:58.687Z,17.43
2023-04-22T08:44:58.639Z,17.55
2023-04-22T08:45:58.662Z,17.74
2023-04-22T08:46:59.163Z,17.89
2023-04-22T08:47:58.695Z,17.90
2023-04-22T08:48:58.608Z,17.96
2023-04-22T08:49:58.618Z,17.81
2023-04-22T08:50:58.574Z,17.77
2023-04-22T08:51:58.609Z,17.89
2023-04-22T08:52:58.551Z,17.99
2023-04-22T08:53:58.542Z,18.10
2023-04-22T08:54:58.507Z,18.10
2023-04-22T08:55:58.513Z,17.96
2023-04-22T08:56:58.491Z,17.79
2023-04-22T08:57:58.504Z,17.78
2023-04-22T08:58:58.465Z,17.87
2023-04-22T08:59:58.513Z,18.02
2023-04-22T09:00:58.428Z,18.17
2023-04-22T09:01:58.612Z,18.21
2023-04-22T09:02:58.480Z,18.29
2023-04-22T09:03:58.476Z,18.27
2023-04-22T09:04:58.370Z,18.33
2023-04-22T09:05:58.417Z,18.37
2023-04-22T09:06:58.362Z,18.36
2023-04-22T09:07:58.404Z,18.27
2023-04-22T09:08:58.327Z,18.26
2023-04-22T09:09:58.346Z,18.30
2023-04-22T09:10:58.319Z,18.30
2023-04-22T09:11:58.329Z,18.15
2023-04-22T09:12:58.277Z,18.17
2023-04-22T09:13:58.640Z,18.35
2023-04-22T09:14:58.241Z,18.55
2023-04-22T09:15:59.997Z,18.78
2023-04-22T09:16:58.231Z,18.82
2023-04-22T09:17:58.341Z,18.78
2023-04-22T09:18:58.212Z,18.72
2023-04-22T09:19:58.190Z,18.80
2023-04-22T09:20:58.173Z,18.98
2023-04-22T09:21:58.176Z,19.23
2023-04-22T09:22:58.160Z,19.51
2023-04-22T09:23:58.173Z,19.71
2023-04-22T09:24:58.114Z,19.76
2023-04-22T09:25:58.119Z,19.86
2023-04-22T09:26:58.075Z,19.69
2023-04-22T09:27:58.093Z,19.62
2023-04-22T09:28:58.084Z,19.41
2023-04-22T09:29:58.069Z,19.36
2023-04-22T09:30:58.026Z,19.39
2023-04-22T09:31:58.103Z,19.39
2023-04-22T09:32:58.028Z,19.28
2023-04-22T09:33:58.054Z,19.23
2023-04-22T09:34:57.992Z,19.23
2023-04-22T09:35:58.032Z,19.21
2023-04-22T09:36:57.955Z,19.16
2023-04-22T09:37:57.974Z,19.21
2023-04-22T09:38:57.955Z,19.36
2023-04-22T09:39:57.949Z,19.51
2023-04-22T09:40:57.915Z,19.63
2023-04-22T09:41:57.920Z,19.63
2023-04-22T09:42:57.908Z,19.61
2023-04-22T09:43:57.890Z,19.68
2023-04-22T09:44:58.995Z,19.83
2023-04-22T09:45:57.945Z,19.99
2023-04-22T09:46:57.855Z,20.10
2023-04-22T09:47:57.881Z,20.10
2023-04-22T09:48:57.804Z,19.98
2023-04-22T09:49:57.879Z,19.98
2023-04-22T09:50:57.785Z,20.03
2023-04-22T09:51:57.812Z,19.94
2023-04-22T09:52:57.751Z,19.95
2023-04-22T09:53:57.760Z,19.99
2023-04-22T09:54:57.740Z,19.96
2023-04-22T09:55:57.765Z,20.02
2023-04-22T09:56:57.701Z,20.01
2023-04-22T09:57:57.714Z,19.99
2023-04-22T09:58:57.688Z,20.11
2023-04-22T09:59:57.697Z,20.18
2023-04-22T10:00:57.686Z,20.31
2023-04-22T10:01:57.694Z,20.47
2023-04-22T10:02:57.636Z,20.58
2023-04-22T10:03:57.688Z,20.58
2023-04-22T10:04:57.603Z,20.52
2023-04-22T10:05:57.648Z,20.39
2023-04-22T10:06:57.576Z,20.35
2023-04-22T10:07:57.623Z,20.48
2023-04-22T10:08:57.581Z,20.61
2023-04-22T10:09:57.548Z,20.80
2023-04-22T10:10:57.522Z,20.76
2023-04-22T10:11:57.566Z,20.77
2023-04-22T10:12:57.552Z,20.79
2023-04-22T10:13:57.526Z,20.92
2023-04-22T10:14:57.465Z,21.04
2023-04-22T10:15:57.504Z,21.16
2023-04-22T10:16:57.493Z,21.28
2023-04-22T10:17:57.492Z,21.21
2023-04-22T10:18:57.450Z,21.04
2023-04-22T10:19:57.422Z,20.97
2023-04-22T10:20:57.393Z,21.01
2023-04-22T10:21:57.396Z,21.03
2023-04-22T10:22:57.387Z,21.03
2023-04-22T10:23:57.393Z,21.01
2023-04-22T10:24:57.333Z,20.98
2023-04-22T10:25:57.356Z,20.98
2023-04-22T10:26:57.368Z,21.03
2023-04-22T10:27:57.339Z,21.06
2023-04-22T10:28:57.298Z,21.04
2023-04-22T10:29:57.297Z,21.09
2023-04-22T10:30:57.292Z,21.09
2023-04-22T10:31:57.379Z,21.12
2023-04-22T10:32:57.244Z,21.17
2023-04-22T10:33:57.254Z,21.27
2023-04-22T10:34:57.234Z,21.31
2023-04-22T10:35:57.227Z,21.35
2023-04-22T10:36:57.341Z,21.37
2023-04-22T10:37:57.206Z,21.35
2023-04-22T10:38:57.152Z,21.38
2023-04-22T10:39:57.194Z,21.38
2023-04-22T10:40:57.153Z,21.40
2023-04-22T10:41:57.152Z,21.37
2023-04-22T10:42:57.099Z,21.35
2023-04-22T10:43:57.112Z,21.34
2023-04-22T10:44:57.063Z,21.40
2023-04-22T10:45:57.142Z,21.43
2023-04-22T10:46:57.167Z,21.44
2023-04-22T10:47:57.106Z,21.49
2023-04-22T10:48:57.016Z,21.52
2023-04-22T10:49:57.040Z,21.50
2023-04-22T10:50:56.998Z,21.42
2023-04-22T10:51:57.028Z,21.43
2023-04-22T10:52:56.982Z,21.52
2023-04-22T10:53:56.998Z,21.61
2023-04-22T10:54:56.993Z,21.61
2023-04-22T10:55:56.960Z,21.62
2023-04-22T10:56:58.406Z,21.65
2023-04-22T10:57:56.938Z,21.71
2023-04-22T10:58:56.959Z,21.75
2023-04-22T10:59:56.927Z,21.64
2023-04-22T11:00:56.891Z,21.59
2023-04-22T11:01:56.929Z,21.61
2023-04-22T11:02:56.927Z,21.64
2023-04-22T11:03:56.953Z,21.62
2023-04-22T11:04:56.836Z,21.62
2023-04-22T11:05:56.847Z,21.62
2023-04-22T11:06:56.835Z,21.65
2023-04-22T11:07:56.801Z,21.69
2023-04-22T11:08:56.804Z,21.74
2023-04-22T11:09:56.773Z,21.82
2023-04-22T11:10:56.775Z,21.82
2023-04-22T11:11:56.761Z,21.77
2023-04-22T11:12:56.718Z,21.72
2023-04-22T11:13:56.773Z,21.69
2023-04-22T11:14:56.716Z,21.64
2023-04-22T11:15:56.741Z,21.68
2023-04-22T11:16:56.672Z,21.71
2023-04-22T11:17:56.772Z,21.79
2023-04-22T11:18:56.615Z,21.86
2023-04-22T11:19:56.648Z,21.88
2023-04-22T11:20:56.602Z,21.86
2023-04-22T11:21:56.634Z,21.83
2023-04-22T11:22:56.593Z,21.84
2023-04-22T11:23:56.580Z,21.84
2023-04-22T11:24:56.569Z,21.92
2023-04-22T11:25:56.576Z,21.99
2023-04-22T11:26:56.551Z,22.02
2023-04-22T11:27:56.559Z,22.07
2023-04-22T11:28:56.509Z,22.07
2023-04-22T11:29:56.525Z,22.05
2023-04-22T11:30:56.527Z,21.98
2023-04-22T11:31:56.576Z,21.91
2023-04-22T11:32:56.451Z,21.83
2023-04-22T11:33:56.491Z,21.69
2023-04-22T11:34:56.408Z,21.64
2023-04-22T11:35:56.430Z,21.59
2023-04-22T11:36:56.398Z,21.52
2023-04-22T11:37:56.401Z,21.46
2023-04-22T11:38:56.419Z,21.44
2023-04-22T11:40:17.449Z,21.42
2023-04-22T11:40:56.346Z,21.42
2023-04-22T11:41:56.344Z,21.42
2023-04-22T11:42:56.363Z,21.43
2023-04-22T11:43:56.334Z,21.42
2023-04-22T11:44:56.311Z,21.38
2023-04-22T11:45:56.384Z,21.38
2023-04-22T11:46:56.269Z,21.42
2023-04-22T11:47:56.346Z,21.38
2023-04-22T11:48:56.238Z,21.37
2023-04-22T11:49:56.280Z,21.38
2023-04-22T11:50:56.214Z,21.44
2023-04-22T11:51:56.260Z,21.47
2023-04-22T11:52:56.183Z,21.54
2023-04-22T11:53:56.198Z,21.62
2023-04-22T11:54:56.170Z,21.67
2023-04-22T11:55:56.154Z,21.69
2023-04-22T11:56:56.138Z,21.69
2023-04-22T11:57:56.158Z,21.74
2023-04-22T11:58:56.109Z,21.74
2023-04-22T11:59:56.125Z,21.67
2023-04-22T12:00:56.081Z,21.67
2023-04-22T12:01:56.116Z,21.72
2023-04-22T12:02:56.165Z,21.80
2023-04-22T12:03:56.180Z,21.90
2023-04-22T12:04:56.091Z,21.98
2023-04-22T12:05:56.058Z,21.96
2023-04-22T12:06:56.005Z,21.94
2023-04-22T12:07:56.041Z,21.94
2023-04-22T12:08:55.983Z,21.88
2023-04-22T12:09:56.036Z,21.83
2023-04-22T12:10:55.957Z,21.80
2023-04-22T12:11:55.957Z,21.77
2023-04-22T12:12:55.952Z,21.77
2023-04-22T12:13:55.957Z,21.77
2023-04-22T12:14:55.904Z,21.75
2023-04-22T12:15:55.914Z,21.71
2023-04-22T12:16:55.947Z,21.69
2023-04-22T12:17:55.971Z,21.68
2023-04-22T12:18:55.851Z,21.69
2023-04-22T12:19:55.865Z,21.64
2023-04-22T12:20:55.855Z,21.54
2023-04-22T12:21:55.893Z,21.46
2023-04-22T12:22:55.793Z,21.40
2023-04-22T12:23:55.801Z,21.40
2023-04-22T12:24:55.795Z,21.40
2023-04-22T12:25:55.830Z,21.40
2023-04-22T12:26:55.727Z,21.44
2023-04-22T12:27:55.750Z,21.49
2023-04-22T12:28:55.713Z,21.53
2023-04-22T12:29:55.738Z,21.58
2023-04-22T12:30:55.721Z,21.65
2023-04-22T12:31:55.685Z,21.69
2023-04-22T12:32:55.692Z,21.77
2023-04-22T12:33:55.767Z,21.84
2023-04-22T12:34:55.671Z,21.86
2023-04-22T12:35:55.653Z,21.84
2023-04-22T12:36:55.604Z,21.79
2023-04-22T12:37:55.665Z,21.79
2023-04-22T12:38:55.704Z,21.90
2023-04-22T12:39:55.632Z,21.91
2023-04-22T12:40:55.553Z,21.94
2023-04-22T12:41:55.572Z,21.91
2023-04-22T12:42:55.524Z,21.86
2023-04-22T12:43:55.561Z,21.82
2023-04-22T12:44:55.531Z,21.75
2023-04-22T12:45:55.525Z,21.68
2023-04-22T12:46:55.511Z,21.59
2023-04-22T12:47:55.552Z,21.56
2023-04-22T12:48:55.548Z,21.52
2023-04-22T12:49:55.459Z,21.52
2023-04-22T12:50:55.478Z,21.49
2023-04-22T12:51:55.454Z,21.53
2023-04-22T12:52:55.437Z,21.54
2023-04-22T12:53:55.374Z,21.53
2023-04-22T12:54:55.393Z,21.47
2023-04-22T12:55:55.368Z,21.44
2023-04-22T12:56:55.488Z,21.34
2023-04-22T12:57:55.330Z,21.24
2023-04-22T12:58:55.366Z,21.17